createdAt,value
2023-03-26T00:01:38.182Z,100741.00
2023-03-26T00:04:06.679Z,100744.47
2023-03-26T00:06:37.587Z,100742.00
2023-03-26T00:09:06.651Z,100743.91
2023-03-26T00:11:33.529Z,100746.59
2023-03-26T00:14:00.176Z,100740.41
2023-03-26T00:16:29.858Z,100736.06
2023-03-26T00:18:57.746Z,100734.19
2023-03-26T00:21:28.808Z,100738.78
2023-03-26T00:23:58.432Z,100740.91
2023-03-26T00:26:24.964Z,100739.28
2023-03-26T00:28:51.576Z,100737.66
2023-03-26T00:31:18.156Z,100727.66
2023-03-26T00:33:44.751Z,100733.31
2023-03-26T00:36:17.524Z,100730.06
2023-03-26T00:38:46.168Z,100724.91
2023-03-26T00:41:22.825Z,100720.84
2023-03-26T00:43:56.218Z,100711.34
2023-03-26T00:46:26.637Z,100709.97
2023-03-26T00:48:53.561Z,100704.03
2023-03-26T00:51:21.206Z,100698.06
2023-03-26T00:53:57.745Z,100704.53
2023-03-26T00:56:24.933Z,100699.63
2023-03-26T00:58:51.462Z,100702.34
2023-03-26T01:01:27.511Z,100691.78
2023-03-26T01:04:08.271Z,100698.00
2023-03-26T01:06:38.898Z,100701.78
2023-03-26T01:09:14.319Z,100701.78
2023-03-26T01:11:40.700Z,100694.75
2023-03-26T01:14:11.574Z,100696.88
2023-03-26T01:16:49.794Z,100682.00
2023-03-26T01:19:33.931Z,100676.59
2023-03-26T01:22:02.672Z,100679.56
2023-03-26T01:24:29.182Z,100670.91
2023-03-26T01:27:13.538Z,100663.38
2023-03-26T01:29:49.147Z,100656.34
2023-03-26T01:32:47.495Z,100649.31
2023-03-26T01:35:57.523Z,100658.47
2023-03-26T01:38:40.625Z,100660.09
2023-03-26T01:41:23.087Z,100645.22
2023-03-26T01:44:08.779Z,100638.75
2023-03-26T01:46:38.037Z,100640.38
2023-03-26T01:49:05.428Z,100636.38
2023-03-26T01:51:35.476Z,100634.25
2023-03-26T01:54:05.521Z,100632.91
2023-03-26T01:56:46.472Z,100623.72
2023-03-26T01:59:25.284Z,100619.16
2023-03-26T02:02:07.417Z,100619.41
2023-03-26T02:05:03.841Z,100608.88
2023-03-26T02:07:45.688Z,100609.38
2023-03-26T02:10:35.572Z,100600.47
2023-03-26T02:13:02.654Z,100595.34
2023-03-26T02:15:29.085Z,100599.09
2023-03-26T02:17:55.484Z,100589.94
2023-03-26T02:20:22.157Z,100592.59
2023-03-26T02:22:48.607Z,100584.72
2023-03-26T02:25:17.773Z,100584.72
2023-03-26T02:27:49.596Z,100582.31
2023-03-26T02:30:25.984Z,100579.34
2023-03-26T02:32:54.230Z,100578.53
2023-03-26T02:35:22.230Z,100582.31
2023-03-26T02:37:50.865Z,100573.38
2023-03-26T02:40:21.063Z,100572.31
2023-03-26T02:42:47.488Z,100565.59
2023-03-26T02:45:14.363Z,100561.31
2023-03-26T02:47:40.756Z,100561.31
2023-03-26T02:50:08.964Z,100562.44
2023-03-26T02:52:37.400Z,100566.72
2023-03-26T02:55:03.853Z,100562.13
2023-03-26T02:57:31.170Z,100559.75
2023-03-26T02:59:57.831Z,100560.28
2023-03-26T03:02:24.334Z,100561.94
2023-03-26T03:04:51.919Z,100558.41
2023-03-26T03:07:18.297Z,100556.53
2023-03-26T03:09:44.692Z,100554.94
2023-03-26T03:12:11.165Z,100548.47
2023-03-26T03:14:37.754Z,100548.47
2023-03-26T03:17:04.223Z,100549.81
2023-03-26T03:19:31.683Z,100549.59
2023-03-26T03:21:58.074Z,100550.69
2023-03-26T03:24:24.512Z,100541.00
2023-03-26T03:26:56.803Z,100537.75
2023-03-26T03:29:23.860Z,100526.44
2023-03-26T03:31:50.505Z,100526.47
2023-03-26T03:34:16.921Z,100524.91
2023-03-26T03:36:43.287Z,100514.66
2023-03-26T03:39:09.673Z,100520.56
2023-03-26T03:41:36.044Z,100523.81
2023-03-26T03:44:02.407Z,100523.31
2023-03-26T03:46:28.887Z,100522.78
2023-03-26T03:48:55.981Z,100524.41
2023-03-26T03:51:22.340Z,100519.00
2023-03-26T03:53:50.790Z,100519.56
2023-03-26T03:56:19.304Z,100523.91
2023-03-26T03:58:46.300Z,100524.19
2023-03-26T04:01:13.500Z,100516.34
2023-03-26T04:03:41.084Z,100517.97
2023-03-26T04:06:11.071Z,100516.91
2023-03-26T04:08:37.975Z,100511.50
2023-03-26T04:11:04.817Z,100509.34
2023-03-26T04:13:31.201Z,100504.50
2023-03-26T04:15:57.983Z,100491.25
2023-03-26T04:18:26.242Z,100497.47
2023-03-26T04:20:54.590Z,100491.25
2023-03-26T04:23:22.486Z,100489.91
2023-03-26T04:25:53.812Z,100484.50
2023-03-26T04:28:42.760Z,100484.81
2023-03-26T04:31:15.784Z,100478.59
2023-03-26T04:33:48.590Z,100473.19
2023-03-26T04:36:17.840Z,100470.47
2023-03-26T04:38:46.463Z,100462.38
2023-03-26T04:41:13.840Z,100460.50
2023-03-26T04:43:47.426Z,100454.81
2023-03-26T04:46:14.583Z,100446.16
2023-03-26T04:48:41.044Z,100447.00
2023-03-26T04:51:07.588Z,100440.75
2023-03-26T04:53:35.334Z,100445.91
2023-03-26T04:56:17.049Z,100440.75
2023-03-26T04:58:43.533Z,100435.38
2023-03-26T05:01:11.118Z,100429.72
2023-03-26T05:03:40.689Z,100427.00
2023-03-26T05:06:07.571Z,100422.94
2023-03-26T05:08:35.234Z,100415.69
2023-03-26T05:11:01.624Z,100418.63
2023-03-26T05:13:28.077Z,100418.91
2023-03-26T05:15:55.604Z,100419.97
2023-03-26T05:18:21.971Z,100416.44
2023-03-26T05:20:56.005Z,100417.53
2023-03-26T05:23:22.620Z,100408.31
2023-03-26T05:25:49.053Z,100416.19
2023-03-26T05:28:15.445Z,100406.72
2023-03-26T05:30:43.470Z,100401.31
2023-03-26T05:33:10.669Z,100404.56
2023-03-26T05:35:43.417Z,100400.78
2023-03-26T05:38:09.863Z,100393.75
2023-03-26T05:40:36.626Z,100395.66
2023-03-26T05:43:03.384Z,100390.00
2023-03-26T05:45:30.214Z,100388.38
2023-03-26T05:47:56.702Z,100390.00
2023-03-26T05:50:24.236Z,100386.75
2023-03-26T05:52:50.978Z,100380.81
2023-03-26T05:55:18.430Z,100377.84
2023-03-26T05:57:44.837Z,100382.44
2023-03-26T06:00:12.106Z,100372.44
2023-03-26T06:02:39.104Z,100364.59
2023-03-26T06:05:05.815Z,100367.03
2023-03-26T06:07:34.013Z,100361.66
2023-03-26T06:10:00.893Z,100354.88
2023-03-26T06:12:27.261Z,100353.78
2023-03-26T06:14:56.740Z,100345.44
2023-03-26T06:17:24.388Z,100347.84
2023-03-26T06:19:50.770Z,100344.06
2023-03-26T06:22:18.182Z,100341.91
2023-03-26T06:24:45.781Z,100341.91
2023-03-26T06:27:12.158Z,100335.19
2023-03-26T06:29:38.658Z,100334.34
2023-03-26T06:32:18.495Z,100337.59
2023-03-26T06:34:46.336Z,100339.50
2023-03-26T06:37:12.716Z,100336.53
2023-03-26T06:39:39.088Z,100330.03
2023-03-26T06:42:05.551Z,100330.88
2023-03-26T06:44:32.004Z,100327.88
2023-03-26T06:46:58.475Z,100327.63
2023-03-26T06:49:26.070Z,100327.34
2023-03-26T06:51:52.461Z,100326.56
2023-03-26T06:54:18.814Z,100324.66
2023-03-26T06:56:45.384Z,100325.72
2023-03-26T06:59:11.738Z,100324.66
2023-03-26T07:01:38.280Z,100327.34
2023-03-26T07:04:04.928Z,100330.88
2023-03-26T07:06:33.442Z,100324.09
2023-03-26T07:08:59.800Z,100331.13
2023-03-26T07:11:27.005Z,100331.69
2023-03-26T07:13:56.157Z,100326.56
2023-03-26T07:16:22.745Z,100330.59
2023-03-26T07:18:49.409Z,100321.41
2023-03-26T07:21:17.361Z,100321.41
2023-03-26T07:23:45.124Z,100326.81
2023-03-26T07:26:41.506Z,100324.66
2023-03-26T07:29:24.016Z,100325.50
2023-03-26T07:32:05.616Z,100322.50
2023-03-26T07:34:38.436Z,100329.56
2023-03-26T07:37:12.970Z,100317.91
2023-03-26T07:39:52.184Z,100319.28
2023-03-26T07:42:38.320Z,100313.88
2023-03-26T07:45:24.098Z,100314.44
2023-03-26T07:47:53.448Z,100318.75
2023-03-26T07:50:22.758Z,100321.19
2023-03-26T07:52:49.704Z,100320.91
2023-03-26T07:55:16.978Z,100318.75
2023-03-26T07:57:45.412Z,100311.44
2023-03-26T08:00:22.088Z,100310.66
2023-03-26T08:03:19.613Z,100308.50
2023-03-26T08:06:10.889Z,100307.94
2023-03-26T08:08:48.921Z,100303.88
2023-03-26T08:11:35.374Z,100311.75
2023-03-26T08:14:21.668Z,100311.75
2023-03-26T08:17:16.639Z,100305.78
2023-03-26T08:19:51.000Z,100303.09
2023-03-26T08:22:27.357Z,100306.03
2023-03-26T08:25:47.058Z,100301.47
2023-03-26T08:28:26.610Z,100302.00
2023-03-26T08:30:55.163Z,100302.81
2023-03-26T08:33:25.847Z,100299.84
2023-03-26T08:35:52.288Z,100301.72
2023-03-26T08:38:20.575Z,100299.84
2023-03-26T08:41:11.526Z,100298.75
2023-03-26T08:44:11.001Z,100299.31
2023-03-26T08:46:49.180Z,100295.22
2023-03-26T08:49:46.445Z,100302.53
2023-03-26T08:52:33.392Z,100309.56
2023-03-26T08:55:27.642Z,100306.31
2023-03-26T08:58:25.198Z,100310.38
2023-03-26T09:01:06.518Z,100306.88
2023-03-26T09:04:14.256Z,100309.03
2023-03-26T09:07:09.695Z,100311.97
2023-03-26T09:10:11.776Z,100315.22
2023-03-26T09:13:06.526Z,100310.06
2023-03-26T09:15:32.819Z,100314.38
2023-03-26T09:18:48.692Z,100308.97
2023-03-26T09:21:25.520Z,100314.13
2023-03-26T09:24:14.090Z,100312.22
2023-03-26T09:27:11.039Z,100313.31
2023-03-26T09:30:01.346Z,100309.25
2023-03-26T09:32:58.328Z,100309.50
2023-03-26T09:35:27.463Z,100303.56
2023-03-26T09:38:11.256Z,100312.22
2023-03-26T09:40:54.139Z,100310.34
2023-03-26T09:43:42.118Z,100306.28
2023-03-26T09:46:28.967Z,100314.66
2023-03-26T09:49:34.429Z,100317.09
2023-03-26T09:52:32.270Z,100325.75
2023-03-26T09:55:19.569Z,100320.88
2023-03-26T09:58:10.743Z,100329.53
2023-03-26T10:01:01.298Z,100323.56
2023-03-26T10:03:47.459Z,100332.22
2023-03-26T10:06:16.637Z,100327.63
2023-03-26T10:09:15.229Z,100337.06
2023-03-26T10:11:58.044Z,100338.13
2023-03-26T10:14:36.623Z,100343.00
2023-03-26T10:17:20.168Z,100333.03
2023-03-26T10:20:21.460Z,100337.06
2023-03-26T10:23:27.034Z,100337.34
2023-03-26T10:26:19.878Z,100343.53
2023-03-26T10:29:18.917Z,100341.91
2023-03-26T10:32:20.587Z,100347.31
2023-03-26T10:35:19.466Z,100341.13
2023-03-26T10:38:08.643Z,100352.72
2023-03-26T10:40:54.211Z,100350.56
2023-03-26T10:44:01.230Z,100359.50
2023-03-26T10:46:52.665Z,100352.72
2023-03-26T10:49:49.894Z,100353.81
2023-03-26T10:52:22.304Z,100360.06
2023-03-26T10:54:55.037Z,100353.81
2023-03-26T10:57:38.785Z,100360.59
2023-03-26T11:00:26.445Z,100365.69
2023-03-26T11:03:16.068Z,100365.66
2023-03-26T11:06:06.228Z,100365.13
2023-03-26T11:08:40.959Z,100368.66
2023-03-26T11:11:27.982Z,100373.22
2023-03-26T11:14:31.866Z,100368.66
2023-03-26T11:17:40.942Z,100368.38
2023-03-26T11:20:09.743Z,100371.63
2023-03-26T11:22:52.374Z,100382.97
2023-03-26T11:25:37.289Z,100380.81
2023-03-26T11:28:09.169Z,100388.38
2023-03-26T11:30:53.165Z,100389.75
2023-03-26T11:33:24.374Z,100382.47
2023-03-26T11:35:55.225Z,100386.00
2023-03-26T11:38:41.892Z,100390.06
2023-03-26T11:41:15.849Z,100400.84
2023-03-26T11:44:24.596Z,100404.38
2023-03-26T11:46:58.788Z,100406.75
2023-03-26T11:49:26.281Z,100396.22
2023-03-26T11:51:52.710Z,100405.09
2023-03-26T11:54:21.011Z,100408.06
2023-03-26T11:57:04.438Z,100403.72
2023-03-26T11:59:59.396Z,100406.16
2023-03-26T12:02:32.290Z,100406.16
2023-03-26T12:05:26.691Z,100408.06
2023-03-26T12:08:02.108Z,100409.97
2023-03-26T12:10:37.818Z,100416.47
2023-03-26T12:13:35.555Z,100407.28
2023-03-26T12:16:13.157Z,100417.03
2023-03-26T12:18:41.656Z,100415.41
2023-03-26T12:21:12.623Z,100423.00
2023-03-26T12:24:04.699Z,100419.50
2023-03-26T12:26:35.770Z,100419.78
2023-03-26T12:29:11.442Z,100409.81
2023-03-26T12:32:01.873Z,100427.41
2023-03-26T12:34:35.451Z,100420.41
2023-03-26T12:37:03.604Z,100430.94
2023-03-26T12:40:07.369Z,100433.94
2023-03-26T12:44:44.293Z,100431.22
2023-03-26T12:45:22.528Z,100434.47
2023-03-26T12:48:00.800Z,100437.72
2023-03-26T12:51:05.017Z,100436.38
2023-03-26T12:53:42.886Z,100438.81
2023-03-26T12:56:19.856Z,100445.31
2023-03-26T12:59:01.549Z,100444.22
2023-03-26T13:01:35.442Z,100452.88
2023-03-26T13:04:36.143Z,100456.94
2023-03-26T13:07:45.755Z,100449.13
2023-03-26T13:10:29.229Z,100460.50
2023-03-26T13:13:33.699Z,100456.44
2023-03-26T13:16:14.770Z,100451.28
2023-03-26T13:19:07.166Z,100461.56
2023-03-26T13:22:09.116Z,100456.16
2023-03-26T13:24:56.394Z,100470.78
2023-03-26T13:27:36.762Z,100483.50
2023-03-26T13:30:48.355Z,100477.78
2023-03-26T13:33:38.401Z,100477.25
2023-03-26T13:36:26.620Z,100484.84
2023-03-26T13:39:24.824Z,100485.91
2023-03-26T13:42:15.731Z,100486.47
2023-03-26T13:45:04.994Z,100485.38
2023-03-26T13:47:41.030Z,100485.91
2023-03-26T13:50:14.699Z,100492.41
2023-03-26T13:52:49.046Z,100495.13
2023-03-26T13:55:43.771Z,100493.50
2023-03-26T13:58:36.727Z,100504.88
2023-03-26T14:01:23.285Z,100496.22
2023-03-26T14:04:08.397Z,100496.22
2023-03-26T14:06:57.873Z,100490.25
2023-03-26T14:09:31.911Z,100500.28
2023-03-26T14:12:03.945Z,100508.66
2023-03-26T14:14:46.423Z,100512.44
2023-03-26T14:17:22.281Z,100522.19
2023-03-26T14:20:25.175Z,100523.81
2023-03-26T14:23:16.579Z,100529.75
2023-03-26T14:26:19.103Z,100531.91
2023-03-26T14:29:07.665Z,100531.63
2023-03-26T14:31:54.792Z,100531.91
2023-03-26T14:34:38.235Z,100548.13
2023-03-26T14:37:32.951Z,100549.22
2023-03-26T14:40:33.490Z,100554.06
2023-03-26T14:43:38.937Z,100555.94
2023-03-26T14:46:29.674Z,100552.41
2023-03-26T14:49:02.190Z,100570.78
2023-03-26T14:51:52.571Z,100576.72
2023-03-26T14:54:24.863Z,100578.88
2023-03-26T14:57:06.150Z,100579.13
2023-03-26T15:00:07.215Z,100601.88
2023-03-26T15:03:07.949Z,100594.28
2023-03-26T15:05:59.500Z,100602.91
2023-03-26T15:09:11.142Z,100603.72
2023-03-26T15:12:13.185Z,100607.50
2023-03-26T15:14:39.914Z,100611.25
2023-03-26T15:17:41.649Z,100619.88
2023-03-26T15:20:20.297Z,100625.28
2023-03-26T15:23:14.502Z,100620.44
2023-03-26T15:25:46.785Z,100630.19
2023-03-26T15:28:51.350Z,100624.78
2023-03-26T15:31:55.715Z,100626.91
2023-03-26T15:34:59.941Z,100628.00
2023-03-26T15:38:03.942Z,100632.81
2023-03-26T15:41:19.548Z,100636.06
2023-03-26T15:47:05.749Z,100660.91
2023-03-26T15:49:50.044Z,100674.38
2023-03-26T15:52:19.348Z,100668.91
2023-03-26T15:54:55.794Z,100683.50
2023-03-26T15:57:40.993Z,100682.94
2023-03-26T16:00:22.999Z,100696.94
2023-03-26T16:03:17.788Z,100703.38
2023-03-26T16:05:57.293Z,100707.97
2023-03-26T16:08:39.122Z,100726.84
2023-03-26T16:11:12.411Z,100721.94
2023-03-26T16:13:39.246Z,100737.09
2023-03-26T16:16:14.867Z,100728.66
2023-03-26T16:18:57.167Z,100737.84
2023-03-26T16:21:39.439Z,100734.56
2023-03-26T16:24:05.782Z,100742.69
2023-03-26T16:26:44.430Z,100740.47
2023-03-26T16:29:18.065Z,100752.34
2023-03-26T16:32:18.874Z,100755.31
2023-03-26T16:34:59.445Z,100760.97
2023-03-26T16:37:37.977Z,100765.81
2023-03-26T16:40:16.843Z,100774.13
2023-03-26T16:43:05.196Z,100780.53
2023-03-26T16:45:44.091Z,100796.72
2023-03-26T16:48:22.725Z,100791.34
2023-03-26T16:51:04.753Z,100800.81
2023-03-26T16:53:42.726Z,100810.72
2023-03-26T16:56:16.770Z,100816.13
2023-03-26T16:59:00.412Z,100821.81
2023-03-26T17:01:42.900Z,100826.06
2023-03-26T17:04:23.234Z,100839.50
2023-03-26T17:07:28.627Z,100845.97
2023-03-26T17:10:21.835Z,100840.81
2023-03-26T17:13:01.422Z,100846.47
2023-03-26T17:15:58.932Z,100860.47
2023-03-26T17:18:46.876Z,100864.97
2023-03-26T17:21:47.123Z,100867.28
2023-03-26T17:24:40.690Z,100880.94
2023-03-26T17:27:26.543Z,100884.38
2023-03-26T17:30:07.444Z,100893.81
2023-03-26T17:32:54.045Z,100891.59
2023-03-26T17:35:36.485Z,100908.00
2023-03-26T17:38:03.895Z,100920.34
2023-03-26T17:40:45.029Z,100915.94
2023-03-26T17:43:31.791Z,100929.91
2023-03-26T17:46:03.094Z,100932.63
2023-03-26T17:48:36.457Z,100929.34
2023-03-26T17:51:20.834Z,100931.47
2023-03-26T17:53:47.594Z,100942.75
2023-03-26T17:56:18.652Z,100949.09
2023-03-26T17:58:52.680Z,100947.47
2023-03-26T18:01:41.346Z,100956.41
2023-03-26T18:04:21.354Z,100955.56
2023-03-26T18:07:07.746Z,100968.81
2023-03-26T18:09:40.177Z,100971.16
2023-03-26T18:12:32.226Z,100977.78
2023-03-26T18:15:22.427Z,100982.28
2023-03-26T18:17:49.020Z,100991.44
2023-03-26T18:20:25.050Z,100992.38
2023-03-26T18:22:53.711Z,100993.34
2023-03-26T18:25:32.130Z,101001.91
2023-03-26T18:28:01.967Z,101004.59
2023-03-26T18:30:29.318Z,101011.63
2023-03-26T18:33:11.928Z,101015.50
2023-03-26T18:35:42.194Z,101018.19
2023-03-26T18:38:14.067Z,101030.13
2023-03-26T18:40:43.020Z,101034.22
2023-03-26T18:43:28.816Z,101046.31
2023-03-26T18:46:01.310Z,101050.53
2023-03-26T18:48:28.911Z,101043.50
2023-03-26T18:51:05.874Z,101068.34
2023-03-26T18:53:39.880Z,101073.25
2023-03-26T18:56:29.850Z,101081.94
2023-03-26T18:58:59.152Z,101089.44
2023-03-26T19:01:30.522Z,101093.06
2023-03-26T19:04:02.081Z,101095.66
2023-03-26T19:06:28.902Z,101107.97
2023-03-26T19:08:57.504Z,101102.22
2023-03-26T19:11:26.131Z,101105.63
2023-03-26T19:14:03.881Z,101109.28
2023-03-26T19:16:37.684Z,101117.84
2023-03-26T19:19:07.490Z,101124.03
2023-03-26T19:21:35.682Z,101122.38
2023-03-26T19:24:03.903Z,101136.09
2023-03-26T19:26:31.479Z,101138.22
2023-03-26T19:28:58.265Z,101133.88
2023-03-26T19:31:34.137Z,101138.69
2023-03-26T19:34:20.320Z,101151.78
2023-03-26T19:37:00.969Z,101154.25
2023-03-26T19:39:41.559Z,101158.00
2023-03-26T19:42:17.730Z,101164.91
2023-03-26T19:44:44.760Z,101171.34
2023-03-26T19:47:26.756Z,101180.72
2023-03-26T19:50:23.348Z,101183.38
2023-03-26T19:53:28.472Z,101181.41
2023-03-26T19:55:57.406Z,101184.56
2023-03-26T19:58:26.676Z,101186.41
2023-03-26T20:00:53.257Z,101193.91
2023-03-26T20:03:30.328Z,101189.81
2023-03-26T20:05:56.847Z,101206.19
2023-03-26T20:08:27.028Z,101196.91
2023-03-26T20:10:56.290Z,101206.44
2023-03-26T20:13:22.793Z,101209.56
2023-03-26T20:16:05.173Z,101217.38
2023-03-26T20:18:33.203Z,101223.38
2023-03-26T20:20:59.576Z,101224.22
2023-03-26T20:23:28.843Z,101222.94
2023-03-26T20:25:55.616Z,101232.66
2023-03-26T20:28:22.242Z,101232.66
2023-03-26T20:30:50.030Z,101240.72
2023-03-26T20:33:26.778Z,101244.00
2023-03-26T20:35:55.395Z,101240.72
2023-03-26T20:38:36.601Z,101252.78
2023-03-26T20:41:04.138Z,101248.69
2023-03-26T20:43:30.915Z,101250.31
2023-03-26T20:45:58.514Z,101259.44
2023-03-26T20:48:27.076Z,101266.91
2023-03-26T20:50:54.096Z,101276.47
2023-03-26T20:53:20.722Z,101283.22
2023-03-26T20:55:47.952Z,101292.34
2023-03-26T20:58:31.103Z,101298.22
2023-03-26T21:01:01.474Z,101306.72
2023-03-26T21:03:28.039Z,101297.81
2023-03-26T21:05:54.458Z,101304.50
2023-03-26T21:08:22.243Z,101309.03
2023-03-26T21:10:48.885Z,101307.63
2023-03-26T21:13:38.945Z,101307.63
2023-03-26T21:16:06.499Z,101313.09
2023-03-26T21:18:33.495Z,101314.38
2023-03-26T21:21:26.120Z,101318.41
2023-03-26T21:24:00.226Z,101326.91
2023-03-26T21:26:34.666Z,101323.25
2023-03-26T21:29:08.704Z,101329.34
2023-03-26T21:31:37.952Z,101331.53
2023-03-26T21:34:05.468Z,101330.75
2023-03-26T21:36:32.653Z,101335.38
2023-03-26T21:38:59.567Z,101338.94
2023-03-26T21:41:41.160Z,101342.94
2023-03-26T21:44:08.544Z,101348.38
2023-03-26T21:46:35.413Z,101357.31
2023-03-26T21:49:02.664Z,101362.16
2023-03-26T21:51:29.471Z,101365.88
2023-03-26T21:53:56.277Z,101379.75
2023-03-26T21:56:38.641Z,101374.41
2023-03-26T21:59:35.502Z,101379.56
2023-03-26T22:02:26.904Z,101387.81
2023-03-26T22:05:17.022Z,101396.13
2023-03-26T22:07:56.046Z,101395.06
2023-03-26T22:10:23.027Z,101398.56
2023-03-26T22:12:50.058Z,101406.88
2023-03-26T22:15:19.122Z,101411.97
2023-03-26T22:17:53.622Z,101407.59
2023-03-26T22:20:24.427Z,101411.88
2023-03-26T22:22:53.088Z,101422.38
2023-03-26T22:25:20.902Z,101426.88
2023-03-26T22:27:48.568Z,101427.88
2023-03-26T22:30:15.690Z,101424.53
2023-03-26T22:32:43.303Z,101430.69
2023-03-26T22:35:09.796Z,101433.97
2023-03-26T22:37:37.133Z,101438.91
2023-03-26T22:40:13.614Z,101442.03
2023-03-26T22:42:41.291Z,101444.13
2023-03-26T22:45:09.437Z,101444.13
2023-03-26T22:47:36.009Z,101453.66
2023-03-26T22:50:04.155Z,101453.28
2023-03-26T22:52:31.337Z,101456.00
2023-03-26T22:54:57.884Z,101463.91
2023-03-26T22:57:24.456Z,101462.06
2023-03-26T22:59:52.045Z,101468.75
2023-03-26T23:02:19.321Z,101472.91
2023-03-26T23:04:47.761Z,101478.75
2023-03-26T23:07:14.550Z,101474.22
2023-03-26T23:09:41.596Z,101484.59
2023-03-26T23:12:08.228Z,101495.31
2023-03-26T23:14:34.673Z,101500.69
2023-03-26T23:17:01.538Z,101496.56
2023-03-26T23:19:30.108Z,101495.28
2023-03-26T23:21:57.539Z,101493.44
2023-03-26T23:24:26.280Z,101506.03
2023-03-26T23:26:53.152Z,101512.84
2023-03-26T23:29:19.869Z,101514.50
2023-03-26T23:31:46.552Z,101513.47
2023-03-26T23:34:13.549Z,101520.91
2023-03-26T23:36:40.881Z,101526.28
2023-03-26T23:39:09.004Z,101533.69
2023-03-26T23:41:35.386Z,101536.81
2023-03-26T23:44:01.757Z,101537.41
2023-03-26T23:46:34.811Z,101538.44
2023-03-26T23:49:04.736Z,101551.88
2023-03-26T23:51:31.687Z,101558.06
2023-03-26T23:53:58.435Z,101564.66
2023-03-26T23:56:24.917Z,101570.84
2023-03-26T23:58:51.363Z,101570.66
